createdAt,value
2018-06-16T00:01:44.839Z,19.40
2018-06-16T00:04:14.238Z,19.40
2018-06-16T00:06:43.938Z,19.30
2018-06-16T00:09:13.299Z,19.30
2018-06-16T00:11:42.672Z,19.20
2018-06-16T00:14:12.075Z,19.10
2018-06-16T00:16:41.440Z,19.00
2018-06-16T00:19:10.801Z,18.90
2018-06-16T00:21:40.194Z,18.80
2018-06-16T00:24:09.578Z,18.70
2018-06-16T00:26:45.403Z,18.70
2018-06-16T00:29:14.769Z,18.60
2018-06-16T00:31:44.157Z,18.50
2018-06-16T00:34:13.567Z,18.60
2018-06-16T00:36:42.905Z,18.40
2018-06-16T00:39:12.354Z,18.40
2018-06-16T00:41:41.777Z,18.30
2018-06-16T00:44:11.116Z,18.30
2018-06-16T00:46:40.223Z,18.20
2018-06-16T00:49:09.670Z,18.10
2018-06-16T00:51:39.114Z,18.10
2018-06-16T00:54:08.502Z,18.10
2018-06-16T00:56:37.847Z,17.90
2018-06-16T00:59:07.204Z,17.90
2018-06-16T01:01:36.592Z,17.90
2018-06-16T01:04:06.020Z,17.80
2018-06-16T01:06:35.383Z,17.80
2018-06-16T01:09:06.719Z,17.70
2018-06-16T01:11:36.100Z,17.70
2018-06-16T01:14:05.823Z,17.60
2018-06-16T01:16:34.905Z,17.60
2018-06-16T01:19:04.241Z,17.60
2018-06-16T01:21:33.580Z,17.60
2018-06-16T01:24:02.959Z,17.50
2018-06-16T01:26:38.661Z,17.50
2018-06-16T01:29:08.043Z,17.40
2018-06-16T01:31:37.436Z,17.40
2018-06-16T01:34:06.836Z,17.30
2018-06-16T01:36:36.504Z,17.30
2018-06-16T01:39:07.449Z,17.30
2018-06-16T01:41:37.028Z,17.30
2018-06-16T01:44:06.451Z,17.30
2018-06-16T01:46:35.527Z,17.20
2018-06-16T01:49:04.885Z,17.20
2018-06-16T01:51:34.225Z,17.10
2018-06-16T01:54:03.624Z,17.10
2018-06-16T01:56:32.988Z,17.20
2018-06-16T01:59:02.317Z,17.10
2018-06-16T02:01:31.738Z,17.10
2018-06-16T02:04:01.244Z,17.00
2018-06-16T02:06:30.590Z,17.10
2018-06-16T02:08:59.935Z,17.00
2018-06-16T02:11:29.305Z,17.00
2018-06-16T02:13:58.639Z,17.00
2018-06-16T02:16:28.020Z,16.90
2018-06-16T02:18:57.409Z,16.90
2018-06-16T02:21:26.773Z,16.80
2018-06-16T02:23:56.190Z,16.80
2018-06-16T02:26:25.534Z,16.80
2018-06-16T02:28:54.918Z,16.80
2018-06-16T02:31:24.348Z,16.80
2018-06-16T02:33:53.969Z,16.80
2018-06-16T02:36:23.357Z,16.70
2018-06-16T02:38:52.713Z,16.70
2018-06-16T02:41:22.092Z,16.70
2018-06-16T02:43:51.457Z,16.70
2018-06-16T02:46:20.869Z,16.70
2018-06-16T02:48:56.984Z,16.70
2018-06-16T02:51:26.355Z,16.70
2018-06-16T02:53:55.761Z,16.60
2018-06-16T02:56:25.528Z,16.60
2018-06-16T02:58:54.939Z,16.50
2018-06-16T03:01:24.320Z,16.50
2018-06-16T03:03:53.751Z,16.40
2018-06-16T03:08:52.059Z,16.50
2018-06-16T03:11:21.430Z,16.40
2018-06-16T03:13:50.777Z,16.40
2018-06-16T03:16:20.164Z,16.40
2018-06-16T03:18:49.235Z,16.30
2018-06-16T03:21:18.589Z,16.30
2018-06-16T03:23:47.996Z,16.30
2018-06-16T03:26:17.373Z,16.40
2018-06-16T03:28:46.738Z,16.40
2018-06-16T03:31:16.101Z,16.30
2018-06-16T03:33:45.415Z,16.40
2018-06-16T03:36:14.862Z,16.30
2018-06-16T03:38:44.417Z,16.30
2018-06-16T03:41:13.775Z,16.30
2018-06-16T03:43:42.885Z,16.40
2018-06-16T03:46:12.251Z,16.30
2018-06-16T03:48:41.613Z,16.30
2018-06-16T03:51:10.968Z,16.30
2018-06-16T03:53:40.377Z,16.30
2018-06-16T03:56:09.698Z,16.50
2018-06-16T03:58:39.053Z,16.40
2018-06-16T04:01:08.452Z,16.50
2018-06-16T04:03:37.850Z,16.40
2018-06-16T04:06:07.245Z,16.50
2018-06-16T04:08:36.575Z,16.60
2018-06-16T04:11:06.123Z,16.70
2018-06-16T04:13:35.551Z,16.60
2018-06-16T04:16:05.342Z,16.70
2018-06-16T04:18:34.665Z,16.70
2018-06-16T04:21:04.081Z,16.80
2018-06-16T04:23:33.133Z,16.80
2018-06-16T04:26:02.493Z,16.80
2018-06-16T04:28:31.972Z,16.90
2018-06-16T04:31:01.325Z,17.00
2018-06-16T04:33:30.784Z,17.00
2018-06-16T04:36:00.191Z,17.00
2018-06-16T04:38:29.211Z,17.10
2018-06-16T04:40:58.587Z,17.20
2018-06-16T04:43:28.117Z,17.20
2018-06-16T04:45:57.479Z,17.20
2018-06-16T04:48:26.835Z,17.30
2018-06-16T04:50:56.309Z,17.30
2018-06-16T04:53:25.516Z,17.40
2018-06-16T04:55:54.924Z,17.40
2018-06-16T04:58:24.364Z,17.50
2018-06-16T05:00:53.751Z,17.60
2018-06-16T05:03:23.164Z,17.70
2018-06-16T05:05:52.545Z,17.70
2018-06-16T05:08:21.904Z,17.80
2018-06-16T05:10:51.273Z,17.90
2018-06-16T05:13:20.644Z,17.90
2018-06-16T05:15:50.017Z,18.00
2018-06-16T05:18:19.406Z,18.00
2018-06-16T05:20:48.774Z,18.00
2018-06-16T05:23:18.137Z,18.10
2018-06-16T05:25:47.642Z,18.10
2018-06-16T05:28:23.761Z,18.20
2018-06-16T05:30:53.149Z,18.20
2018-06-16T05:33:22.604Z,18.20
2018-06-16T05:35:51.991Z,18.30
2018-06-16T05:38:21.392Z,18.30
2018-06-16T05:40:50.991Z,18.40
2018-06-16T05:43:20.346Z,18.60
2018-06-16T05:45:49.650Z,18.70
2018-06-16T05:48:19.026Z,18.80
2018-06-16T05:50:48.410Z,18.90
2018-06-16T05:53:17.815Z,19.00
2018-06-16T05:55:46.876Z,19.00
2018-06-16T05:58:16.227Z,19.10
2018-06-16T06:00:45.668Z,19.10
2018-06-16T06:03:15.042Z,19.30
2018-06-16T06:05:44.425Z,19.30
2018-06-16T06:08:13.834Z,19.30
2018-06-16T06:10:43.215Z,19.30
2018-06-16T06:13:12.606Z,19.40
2018-06-16T06:15:42.039Z,19.50
2018-06-16T06:18:11.693Z,19.60
2018-06-16T06:20:41.032Z,19.60
2018-06-16T06:23:10.376Z,19.70
2018-06-16T06:25:39.754Z,19.80
2018-06-16T06:28:08.894Z,19.90
2018-06-16T06:30:38.310Z,20.10
2018-06-16T06:33:07.745Z,20.30
2018-06-16T06:35:37.305Z,20.40
2018-06-16T06:38:06.647Z,20.50
2018-06-16T06:40:36.017Z,20.60
2018-06-16T06:43:06.245Z,20.60
2018-06-16T06:45:36.252Z,20.60
2018-06-16T06:48:06.329Z,20.70
2018-06-16T06:50:35.907Z,20.70
2018-06-16T06:53:05.877Z,20.80
2018-06-16T06:55:35.250Z,20.80
2018-06-16T06:58:04.959Z,20.80
2018-06-16T07:00:34.578Z,20.80
2018-06-16T07:03:03.967Z,20.80
2018-06-16T07:05:33.439Z,20.90
2018-06-16T07:08:02.813Z,20.90
2018-06-16T07:10:32.219Z,21.00
2018-06-16T07:13:01.725Z,21.10
2018-06-16T07:15:38.042Z,21.10
2018-06-16T07:18:08.298Z,21.20
2018-06-16T07:20:38.201Z,21.30
2018-06-16T07:23:08.613Z,21.30
2018-06-16T07:25:38.606Z,21.50
2018-06-16T07:28:07.978Z,21.50
2018-06-16T07:30:37.417Z,21.70
2018-06-16T07:33:06.836Z,21.80
2018-06-16T07:35:36.236Z,21.90
2018-06-16T07:38:05.603Z,21.90
2018-06-16T07:40:35.112Z,22.00
2018-06-16T07:43:04.784Z,22.10
2018-06-16T07:45:34.174Z,22.10
2018-06-16T07:48:03.740Z,22.10
2018-06-16T07:50:33.132Z,22.10
2018-06-16T07:53:02.814Z,22.10
2018-06-16T07:55:32.193Z,22.20
2018-06-16T07:58:01.540Z,22.30
2018-06-16T08:00:30.918Z,22.50
2018-06-16T08:03:00.275Z,22.80
2018-06-16T08:10:27.995Z,22.80
2018-06-16T08:12:57.354Z,22.70
2018-06-16T08:15:26.711Z,22.80
2018-06-16T08:17:56.237Z,22.90
2018-06-16T08:20:25.811Z,23.20
2018-06-16T08:25:30.908Z,23.60
2018-06-16T08:28:00.297Z,23.70
2018-06-16T08:30:29.660Z,23.90
2018-06-16T08:32:59.104Z,23.80
2018-06-16T08:35:28.451Z,23.90
2018-06-16T08:37:57.759Z,24.00
2018-06-16T08:40:27.226Z,24.20
2018-06-16T08:42:56.874Z,24.20
2018-06-16T08:45:26.198Z,24.30
2018-06-16T08:47:55.539Z,24.50
2018-06-16T08:50:24.910Z,24.60
2018-06-16T08:52:54.291Z,24.70
2018-06-16T08:55:24.062Z,24.90
2018-06-16T08:57:53.591Z,25.10
2018-06-16T09:00:23.041Z,25.30
2018-06-16T09:02:52.569Z,25.50
2018-06-16T09:05:21.945Z,25.70
2018-06-16T09:07:51.414Z,25.60
2018-06-16T09:13:53.167Z,25.50
2018-06-16T09:16:22.521Z,25.60
2018-06-16T09:18:51.860Z,25.80
2018-06-16T09:21:20.940Z,26.00
2018-06-16T09:23:50.448Z,26.20
2018-06-16T09:26:19.822Z,26.20
2018-06-16T09:28:49.188Z,26.20
2018-06-16T09:31:18.512Z,26.30
2018-06-16T09:33:47.888Z,26.40
2018-06-16T09:36:17.390Z,26.60
2018-06-16T09:38:46.855Z,26.40
2018-06-16T09:41:16.378Z,26.50
2018-06-16T09:43:45.731Z,26.40
2018-06-16T09:46:15.374Z,26.40
2018-06-16T09:48:45.306Z,26.80
2018-06-16T09:51:15.112Z,27.10
2018-06-16T09:53:44.510Z,27.10
2018-06-16T09:56:13.897Z,26.70
2018-06-16T09:58:43.267Z,26.90
2018-06-16T10:01:12.606Z,26.90
2018-06-16T10:03:42.016Z,26.90
2018-06-16T10:06:11.369Z,26.80
2018-06-16T10:08:40.773Z,27.00
2018-06-16T10:11:10.117Z,27.20
2018-06-16T10:13:39.476Z,26.80
2018-06-16T10:16:08.842Z,26.80
2018-06-16T10:18:38.245Z,27.00
2018-06-16T10:21:07.633Z,27.10
2018-06-16T10:23:37.037Z,27.10
2018-06-16T10:26:09.788Z,27.10
2018-06-16T10:28:39.239Z,27.10
2018-06-16T10:31:09.002Z,27.20
2018-06-16T10:33:38.500Z,27.00
2018-06-16T10:36:07.931Z,27.00
2018-06-16T10:38:37.294Z,27.00
2018-06-16T10:41:06.644Z,27.30
2018-06-16T10:43:36.130Z,27.60
2018-06-16T10:46:05.521Z,27.20
2018-06-16T10:48:34.896Z,27.20
2018-06-16T10:51:04.872Z,27.10
2018-06-16T10:53:34.233Z,27.30
2018-06-16T10:56:03.915Z,27.50
2018-06-16T10:58:33.275Z,27.60
2018-06-16T11:01:02.654Z,27.80
2018-06-16T11:03:32.012Z,27.80
2018-06-16T11:06:01.104Z,27.80
2018-06-16T11:08:30.462Z,28.00
2018-06-16T11:13:28.769Z,27.60
2018-06-16T11:15:58.153Z,27.60
2018-06-16T11:18:27.914Z,27.80
2018-06-16T11:20:57.701Z,27.70
2018-06-16T11:23:27.014Z,27.50
2018-06-16T11:25:56.683Z,27.70
2018-06-16T11:28:26.074Z,28.00
2018-06-16T11:30:55.626Z,28.30
2018-06-16T11:33:24.993Z,28.60
2018-06-16T11:35:54.743Z,28.70
2018-06-16T11:38:24.212Z,28.70
2018-06-16T11:40:53.603Z,28.80
2018-06-16T11:43:23.163Z,28.90
2018-06-16T11:45:52.786Z,29.10
2018-06-16T11:48:22.152Z,29.50
2018-06-16T11:50:51.491Z,29.50
2018-06-16T11:53:20.868Z,29.50
2018-06-16T11:55:50.195Z,29.40
2018-06-16T11:58:19.560Z,29.10
2018-06-16T12:00:49.241Z,29.30
2018-06-16T12:03:18.680Z,29.60
2018-06-16T12:05:47.992Z,29.30
2018-06-16T12:08:17.402Z,29.00
2018-06-16T12:10:46.774Z,28.80
2018-06-16T12:13:16.080Z,28.60
2018-06-16T12:15:45.470Z,28.40
2018-06-16T12:18:14.995Z,28.40
2018-06-16T12:20:44.404Z,28.40
2018-06-16T12:23:13.805Z,28.50
2018-06-16T12:25:43.527Z,28.70
2018-06-16T12:28:12.855Z,28.40
2018-06-16T12:30:42.273Z,28.60
2018-06-16T12:33:11.689Z,29.00
2018-06-16T12:35:41.050Z,29.00
2018-06-16T12:38:16.883Z,28.70
2018-06-16T12:40:46.235Z,28.70
2018-06-16T12:43:15.640Z,28.90
2018-06-16T12:45:44.993Z,29.30
2018-06-16T12:48:14.477Z,29.00
2018-06-16T12:50:43.860Z,29.10
2018-06-16T12:53:13.293Z,29.60
2018-06-16T12:58:11.658Z,30.20
2018-06-16T13:00:41.085Z,30.10
2018-06-16T13:03:10.436Z,30.00
2018-06-16T13:05:39.807Z,29.90
2018-06-16T13:08:10.022Z,29.70
2018-06-16T13:10:39.332Z,29.80
2018-06-16T13:13:10.632Z,29.70
2018-06-16T13:15:42.160Z,29.70
2018-06-16T13:18:13.677Z,29.40
2018-06-16T13:20:45.325Z,29.50
2018-06-16T13:23:16.644Z,29.90
2018-06-16T13:25:48.018Z,29.90
2018-06-16T13:28:19.151Z,29.90
2018-06-16T13:30:50.610Z,29.80
2018-06-16T13:33:21.915Z,29.50
2018-06-16T13:35:53.577Z,29.10
2018-06-16T13:38:25.036Z,28.50
2018-06-16T13:40:57.002Z,28.30
2018-06-16T13:43:29.037Z,28.40
2018-06-16T13:46:00.874Z,28.70
2018-06-16T13:48:32.025Z,29.00
2018-06-16T13:51:03.433Z,28.90
2018-06-16T13:53:34.864Z,28.90
2018-06-16T13:56:06.560Z,29.00
2018-06-16T13:58:38.373Z,29.10
2018-06-16T14:01:10.272Z,29.10
2018-06-16T14:03:41.424Z,29.30
2018-06-16T14:06:12.734Z,29.20
2018-06-16T14:08:44.287Z,29.30
2018-06-16T14:11:15.850Z,29.50
2018-06-16T14:13:47.078Z,29.50
2018-06-16T14:16:18.503Z,29.60
2018-06-16T14:18:49.809Z,29.70
2018-06-16T14:21:21.500Z,29.70
2018-06-16T14:23:52.839Z,29.70
2018-06-16T14:26:24.334Z,29.60
2018-06-16T14:28:56.033Z,29.70
2018-06-16T14:31:27.783Z,29.80
2018-06-16T14:33:59.422Z,30.00
2018-06-16T14:36:30.816Z,30.30
2018-06-16T14:39:00.369Z,30.40
2018-06-16T14:41:29.874Z,30.50
2018-06-16T14:43:59.218Z,30.70
2018-06-16T14:46:28.554Z,30.80
2018-06-16T14:48:57.946Z,31.10
2018-06-16T14:51:27.410Z,31.20
2018-06-16T14:53:56.924Z,31.10
2018-06-16T14:56:26.550Z,31.00
2018-06-16T14:58:56.149Z,31.20
2018-06-16T15:01:25.557Z,31.10
2018-06-16T15:03:54.947Z,30.40
2018-06-16T15:06:24.306Z,29.50
2018-06-16T15:08:53.645Z,29.00
2018-06-16T15:11:23.455Z,28.80
2018-06-16T15:13:52.834Z,29.40
2018-06-16T15:16:22.207Z,31.00
2018-06-16T15:18:51.586Z,32.90
2018-06-16T15:21:20.958Z,34.20
2018-06-16T15:23:50.383Z,35.80
2018-06-16T15:26:19.724Z,35.40
2018-06-16T15:28:49.104Z,35.10
2018-06-16T15:31:18.505Z,34.50
2018-06-16T15:36:16.845Z,33.40
2018-06-16T15:38:46.324Z,33.00
2018-06-16T15:41:15.711Z,32.80
2018-06-16T15:43:45.266Z,32.50
2018-06-16T15:46:14.629Z,32.20
2018-06-16T15:51:13.040Z,34.20
2018-06-16T15:53:43.017Z,34.80
2018-06-16T15:56:12.378Z,33.80
2018-06-16T15:58:41.798Z,32.80
2018-06-16T16:01:11.165Z,31.60
2018-06-16T16:03:40.614Z,30.70
2018-06-16T16:06:09.972Z,30.00
2018-06-16T16:08:39.324Z,29.40
2018-06-16T16:11:08.679Z,29.00
2018-06-16T16:13:38.064Z,28.80
2018-06-16T16:16:07.172Z,28.50
2018-06-16T16:18:36.565Z,28.30
2018-06-16T16:23:34.933Z,27.90
2018-06-16T16:26:07.414Z,27.70
2018-06-16T16:28:36.788Z,27.30
2018-06-16T16:31:06.499Z,27.00
2018-06-16T16:33:35.889Z,26.80
2018-06-16T16:36:05.676Z,26.50
2018-06-16T16:38:35.018Z,26.20
2018-06-16T16:41:04.480Z,26.10
2018-06-16T16:43:33.869Z,25.90
2018-06-16T16:46:03.381Z,25.60
2018-06-16T16:48:32.789Z,25.40
2018-06-16T16:51:02.205Z,25.20
2018-06-16T16:53:31.559Z,24.80
2018-06-16T16:56:00.939Z,24.60
2018-06-16T16:58:30.304Z,24.60
2018-06-16T17:00:59.647Z,24.80
2018-06-16T17:03:28.967Z,24.70
2018-06-16T17:05:58.328Z,25.00
2018-06-16T17:08:27.429Z,25.20
2018-06-16T17:10:56.785Z,24.80
2018-06-16T17:13:26.116Z,24.80
2018-06-16T17:15:55.590Z,24.90
2018-06-16T17:18:25.194Z,24.80
2018-06-16T17:20:54.589Z,24.70
2018-06-16T17:23:23.997Z,24.60
2018-06-16T17:25:53.388Z,24.80
2018-06-16T17:28:22.861Z,24.50
2018-06-16T17:30:52.253Z,24.20
2018-06-16T17:33:21.815Z,24.00
2018-06-16T17:35:51.229Z,24.10
2018-06-16T17:38:20.944Z,24.30
2018-06-16T17:40:50.299Z,24.70
2018-06-16T17:43:19.621Z,26.60
2018-06-16T17:45:48.987Z,28.50
2018-06-16T17:48:18.339Z,28.50
2018-06-16T17:50:47.685Z,28.50
2018-06-16T17:53:17.047Z,28.30
2018-06-16T17:55:46.368Z,28.00
2018-06-16T17:58:16.135Z,27.30
2018-06-16T18:00:45.484Z,26.80
2018-06-16T18:03:14.943Z,26.40
2018-06-16T18:05:44.341Z,26.00
2018-06-16T18:08:13.769Z,25.80
2018-06-16T18:10:43.200Z,25.30
2018-06-16T18:13:12.618Z,24.80
2018-06-16T18:15:42.084Z,24.50
2018-06-16T18:18:11.556Z,24.30
2018-06-16T18:20:41.031Z,24.00
2018-06-16T18:23:10.408Z,23.80
2018-06-16T18:28:09.139Z,23.20
2018-06-16T18:30:38.771Z,22.90
2018-06-16T18:33:08.133Z,22.70
2018-06-16T18:35:37.556Z,22.50
2018-06-16T18:38:06.969Z,22.30
2018-06-16T18:40:36.495Z,22.40
2018-06-16T18:43:06.051Z,21.70
2018-06-16T18:45:35.641Z,21.20
2018-06-16T18:48:05.105Z,21.00
2018-06-16T18:50:36.175Z,21.00
2018-06-16T18:53:05.924Z,20.80
2018-06-16T18:55:37.156Z,20.50
2018-06-16T18:58:06.552Z,20.40
2018-06-16T19:00:36.040Z,20.40
2018-06-16T19:03:05.411Z,20.50
2018-06-16T19:05:34.832Z,20.70
2018-06-16T19:08:04.392Z,20.80
2018-06-16T19:10:33.847Z,20.90
2018-06-16T19:13:03.617Z,20.90
2018-06-16T19:15:32.999Z,21.00
2018-06-16T19:18:02.389Z,21.10
2018-06-16T19:20:31.735Z,21.00
2018-06-16T19:23:01.154Z,20.90
2018-06-16T19:25:30.669Z,20.80
2018-06-16T19:28:00.075Z,20.80
2018-06-16T19:30:29.459Z,20.80
2018-06-16T19:32:58.870Z,20.80
2018-06-16T19:35:29.035Z,20.70
2018-06-16T19:37:58.367Z,21.00
2018-06-16T19:40:27.730Z,21.10
2018-06-16T19:42:57.499Z,21.00
2018-06-16T19:45:26.919Z,21.00
2018-06-16T19:47:56.311Z,20.90
2018-06-16T19:50:25.774Z,20.90
2018-06-16T19:52:55.132Z,20.80
2018-06-16T19:55:24.475Z,20.70
2018-06-16T19:57:53.809Z,20.60
2018-06-16T20:00:23.258Z,20.60
2018-06-16T20:02:52.650Z,20.50
2018-06-16T20:05:22.044Z,20.50
2018-06-16T20:07:51.737Z,20.40
2018-06-16T20:10:21.197Z,20.40
2018-06-16T20:12:50.580Z,20.30
2018-06-16T20:15:19.958Z,20.30
2018-06-16T20:17:49.312Z,20.20
2018-06-16T20:20:18.638Z,20.20
2018-06-16T20:22:48.156Z,20.20
2018-06-16T20:25:17.592Z,20.20
2018-06-16T20:27:46.988Z,20.10
2018-06-16T20:30:16.341Z,20.10
2018-06-16T20:32:45.720Z,20.10
2018-06-16T20:35:15.099Z,20.00
2018-06-16T20:37:44.597Z,19.90
2018-06-16T20:40:14.126Z,19.90
2018-06-16T20:42:43.788Z,19.90
2018-06-16T20:45:13.267Z,19.90
2018-06-16T20:47:42.650Z,19.90
2018-06-16T20:50:12.026Z,19.90
2018-06-16T20:52:41.597Z,19.80
2018-06-16T20:55:10.960Z,19.80
2018-06-16T20:57:40.273Z,19.80
2018-06-16T21:00:09.823Z,19.80
2018-06-16T21:02:39.287Z,19.80
2018-06-16T21:05:10.749Z,19.70
2018-06-16T21:07:40.148Z,19.80
2018-06-16T21:13:01.205Z,19.80
2018-06-16T21:15:30.630Z,19.80
2018-06-16T21:17:59.969Z,19.80
2018-06-16T21:20:29.352Z,19.70
2018-06-16T21:22:58.723Z,19.70
2018-06-16T21:25:28.108Z,19.70
2018-06-16T21:27:57.486Z,19.80
2018-06-16T21:30:26.885Z,19.80
2018-06-16T21:32:56.222Z,19.80
2018-06-16T21:35:25.654Z,20.00
2018-06-16T21:37:54.715Z,20.10
2018-06-16T21:40:24.087Z,20.10
2018-06-16T21:42:53.457Z,20.10
2018-06-16T21:45:22.901Z,20.00
2018-06-16T21:47:52.236Z,20.00
2018-06-16T21:50:21.634Z,19.90
2018-06-16T21:52:51.101Z,19.90
2018-06-16T21:55:20.612Z,19.90
2018-06-16T21:57:50.773Z,19.90
2018-06-16T22:03:32.585Z,19.80
2018-06-16T22:06:01.965Z,19.70
2018-06-16T22:08:32.267Z,19.60
2018-06-16T22:11:03.206Z,19.40
2018-06-16T22:13:32.652Z,19.60
2018-06-16T22:16:02.266Z,19.60
2018-06-16T22:18:31.709Z,19.60
2018-06-16T22:21:01.090Z,19.50
2018-06-16T22:23:30.648Z,19.40
2018-06-16T22:26:00.052Z,19.30
2018-06-16T22:28:29.702Z,19.00
2018-06-16T22:30:59.134Z,18.90
2018-06-16T22:33:28.543Z,19.00
2018-06-16T22:35:57.920Z,19.00
2018-06-16T22:38:27.320Z,18.90
2018-06-16T22:40:56.661Z,19.00
2018-06-16T22:43:26.036Z,18.90
2018-06-16T22:45:55.388Z,19.10
2018-06-16T22:48:24.747Z,19.20
2018-06-16T22:50:54.759Z,19.10
2018-06-16T22:53:24.140Z,19.20
2018-06-16T22:55:53.517Z,19.00
2018-06-16T22:58:22.942Z,18.90
2018-06-16T23:00:52.291Z,18.80
2018-06-16T23:03:21.639Z,18.90
2018-06-16T23:05:50.985Z,18.70
2018-06-16T23:08:20.221Z,18.50
2018-06-16T23:10:49.586Z,18.50
2018-06-16T23:13:18.987Z,18.40
2018-06-16T23:15:48.390Z,18.40
2018-06-16T23:18:17.761Z,18.30
2018-06-16T23:23:22.772Z,18.20
2018-06-16T23:25:52.129Z,18.20
2018-06-16T23:28:21.568Z,18.20
2018-06-16T23:30:51.085Z,18.10
2018-06-16T23:33:20.810Z,17.90
2018-06-16T23:35:50.196Z,17.70
2018-06-16T23:38:19.564Z,17.50
2018-06-16T23:40:48.912Z,17.30
2018-06-16T23:43:18.390Z,17.20
2018-06-16T23:45:47.816Z,17.10
2018-06-16T23:48:17.597Z,17.00
2018-06-16T23:50:47.342Z,17.00
2018-06-16T23:53:16.714Z,16.90
2018-06-16T23:55:46.681Z,16.80
